Time;durP1;ratioP1;P1;durP2;ratioP2;P2;SDS_P1;SDS_P2;PMS_P1;PMS_P2;Temp;Humidity;BMP_temperature;BMP_pressure;BME280_temperature;BME280_humidity;BME280_pressure;Samples;Min_cycle;Max_cycle;Signal;HPM_P1;HPM_P2
2022/07/06 00:00:12;;;;;;;3.38;1.40;;;;;;;14.78;74.83;101604.44;6004282;28;20442;-67
2022/07/06 00:03:07;;;;;;;3.58;1.23;;;;;;;14.99;73.91;101612.16;6004836;28;20058;-67
2022/07/06 00:06:03;;;;;;;8.03;3.27;;;;;;;14.78;74.60;101599.09;6002445;28;20054;-67
2022/07/06 00:08:59;;;;;;;1.98;1.23;;;;;;;14.78;74.96;101605.25;6004723;28;20070;-65
2022/07/06 00:11:54;;;;;;;3.47;1.30;;;;;;;14.90;74.97;101611.22;6004261;28;20125;-65
2022/07/06 00:14:49;;;;;;;5.13;1.30;;;;;;;14.65;75.92;101603.94;6000108;28;20312;-65
2022/07/06 00:17:45;;;;;;;3.13;1.40;;;;;;;14.79;75.85;101590.09;6004713;28;20046;-67
2022/07/06 00:20:40;;;;;;;4.13;1.15;;;;;;;14.72;74.62;101594.34;6003964;28;20030;-65
2022/07/06 00:23:35;;;;;;;5.73;1.83;;;;;;;14.46;74.61;101588.06;6004573;28;20045;-68
2022/07/06 00:26:31;;;;;;;4.28;1.35;;;;;;;14.32;75.24;101592.91;6004624;28;20078;-65
2022/07/06 00:29:26;;;;;;;5.67;1.60;;;;;;;14.23;75.97;101588.44;6004260;28;20038;-65
2022/07/06 00:32:21;;;;;;;6.63;1.30;;;;;;;14.29;76.73;101598.50;6003794;28;20364;-65
2022/07/06 00:35:17;;;;;;;7.20;1.75;;;;;;;14.37;75.17;101599.63;6004312;28;20502;-66
2022/07/06 00:38:12;;;;;;;4.93;1.70;;;;;;;14.18;76.25;101593.38;6004187;28;20031;-66
2022/07/06 00:41:08;;;;;;;2.58;1.15;;;;;;;14.36;75.26;101593.47;6003593;28;20031;-67
2022/07/06 00:44:08;;;;;;;2.83;1.27;;;;;;;14.44;75.90;101584.69;6003529;28;20034;-64
2022/07/06 00:47:05;;;;;;;3.58;1.45;;;;;;;14.35;74.59;101596.28;6004137;28;20035;-67
2022/07/06 00:50:13;;;;;;;3.22;1.35;;;;;;;14.39;75.11;101600.31;6003410;28;20035;-67
2022/07/06 00:53:09;;;;;;;4.10;1.23;;;;;;;14.57;74.69;101595.84;6002860;28;20157;-66
2022/07/06 00:56:04;;;;;;;4.10;1.30;;;;;;;14.61;73.73;101591.91;6003899;28;20039;-66
2022/07/06 00:59:00;;;;;;;3.50;1.30;;;;;;;14.64;73.79;101591.59;6003547;28;20431;-66
2022/07/06 01:01:56;;;;;;;3.05;1.40;;;;;;;14.36;74.60;101587.28;6002825;28;20344;-66
2022/07/06 01:04:51;;;;;;;5.30;1.60;;;;;;;14.34;74.63;101583.91;6003233;28;20039;-67
2022/07/06 01:07:48;;;;;;;2.57;1.13;;;;;;;14.58;74.76;101597.53;6003669;28;20502;-64
2022/07/06 01:10:43;;;;;;;4.57;1.13;;;;;;;14.60;73.81;101598.22;6002518;28;20089;-65
2022/07/06 01:13:39;;;;;;;4.47;1.30;;;;;;;14.55;74.37;101605.84;6003225;28;20035;-65
2022/07/06 01:16:35;;;;;;;4.32;1.48;;;;;;;14.28;74.89;101596.84;6002131;28;20716;-63
2022/07/06 01:19:30;;;;;;;3.67;1.30;;;;;;;14.03;75.24;101573.50;6003053;28;20038;-67
2022/07/06 01:22:26;;;;;;;2.80;1.27;;;;;;;14.10;75.67;101595.94;6002660;28;20046;-67
2022/07/06 01:25:21;;;;;;;4.53;1.20;;;;;;;14.27;75.98;101586.28;5990219;28;20395;-63
2022/07/06 01:28:16;;;;;;;6.00;1.40;;;;;;;14.23;76.02;101593.78;6003086;28;20274;-67
2022/07/06 01:31:23;;;;;;;4.23;1.50;;;;;;;14.02;76.14;101603.81;6002506;28;20270;-65
2022/07/06 01:34:19;;;;;;;4.95;1.55;;;;;;;13.97;76.57;101581.28;6002904;28;20023;-64
2022/07/06 01:37:14;;;;;;;4.55;1.30;;;;;;;14.01;77.08;101599.50;6003118;28;20062;-66
2022/07/06 01:40:11;;;;;;;4.63;1.50;;;;;;;14.00;76.89;101592.47;6002189;28;20034;-66
2022/07/06 01:43:06;;;;;;;3.72;1.20;;;;;;;13.94;76.72;101602.91;6003020;28;20031;-66
2022/07/06 01:46:02;;;;;;;5.27;1.13;;;;;;;13.95;76.24;101583.22;5989515;28;20041;-66
2022/07/06 01:48:57;;;;;;;6.70;1.50;;;;;;;14.09;74.67;101583.59;5997332;28;20022;-68
2022/07/06 01:51:52;;;;;;;3.70;1.23;;;;;;;14.16;74.69;101591.81;6002237;28;20494;-68
2022/07/06 01:54:47;;;;;;;4.73;1.23;;;;;;;14.19;73.86;101581.72;6001416;28;20034;-64
2022/07/06 01:57:43;;;;;;;3.93;0.97;;;;;;;14.32;72.90;101586.75;6000877;28;20042;-65
2022/07/06 02:00:38;;;;;;;4.53;1.03;;;;;;;14.13;73.97;101592.97;6002032;28;20039;-64
2022/07/06 02:03:33;;;;;;;3.10;1.20;;;;;;;14.38;73.90;101590.66;6002463;28;20109;-64
2022/07/06 02:06:29;;;;;;;3.13;1.07;;;;;;;14.31;73.16;101587.69;6002739;28;20042;-64
2022/07/06 02:09:24;;;;;;;4.80;1.10;;;;;;;14.19;72.38;101589.72;6002500;28;20266;-66
2022/07/06 02:12:19;;;;;;;2.30;1.20;;;;;;;14.26;73.24;101577.47;6001376;28;20286;-65
2022/07/06 02:15:15;;;;;;;5.43;1.30;;;;;;;14.30;72.24;101583.34;6002417;28;20026;-65
2022/07/06 02:18:10;;;;;;;2.00;1.10;;;;;;;14.15;72.66;101588.34;6002262;28;20138;-65
2022/07/06 02:21:05;;;;;;;2.73;0.90;;;;;;;14.38;71.95;101579.97;5999834;28;20298;-64
2022/07/06 02:24:01;;;;;;;3.47;1.33;;;;;;;14.37;71.56;101583.63;6001853;28;20329;-67
2022/07/06 02:26:56;;;;;;;3.40;1.37;;;;;;;14.18;71.81;101603.22;6002403;28;20034;-67
2022/07/06 02:29:51;;;;;;;4.33;1.27;;;;;;;14.21;72.60;101593.06;6002204;28;20446;-65
2022/07/06 02:32:46;;;;;;;3.13;1.10;;;;;;;14.24;72.11;101594.63;6001858;28;20121;-67
2022/07/06 02:35:42;;;;;;;3.77;1.10;;;;;;;14.07;72.51;101601.59;6002340;28;20738;-66
2022/07/06 02:38:38;;;;;;;2.60;1.40;;;;;;;13.90;72.66;101590.81;6002137;28;20273;-66
2022/07/06 02:41:33;;;;;;;2.97;1.07;;;;;;;14.00;72.56;101592.47;6001507;28;20069;-64
2022/07/06 02:44:28;;;;;;;2.97;1.10;;;;;;;14.10;72.58;101587.94;6001862;28;20039;-66
2022/07/06 02:47:23;;;;;;;2.67;0.90;;;;;;;13.85;73.23;101577.09;6002229;28;20356;-64
2022/07/06 02:50:19;;;;;;;5.23;1.10;;;;;;;14.01;73.43;101599.50;6001638;28;20042;-66
2022/07/06 02:53:14;;;;;;;6.70;1.43;;;;;;;13.93;73.30;101591.38;6001806;28;20038;-64
2022/07/06 02:56:09;;;;;;;1.67;0.93;;;;;;;13.93;73.46;101574.53;6002237;28;20069;-65
2022/07/06 02:59:05;;;;;;;7.23;1.20;;;;;;;14.07;73.15;101614.06;6001909;28;20043;-65
2022/07/06 03:02:00;;;;;;;2.87;1.27;;;;;;;14.01;73.77;101610.16;6001463;28;20066;-64
2022/07/06 03:04:56;;;;;;;5.88;1.10;;;;;;;14.10;73.33;101598.63;6001907;28;20023;-67
2022/07/06 03:07:51;;;;;;;3.08;1.13;;;;;;;14.00;73.28;101592.47;6005536;28;20034;-64
2022/07/06 03:10:47;;;;;;;4.43;1.20;;;;;;;14.10;73.20;101611.09;6005606;28;20395;-63
2022/07/06 03:13:42;;;;;;;3.63;1.23;;;;;;;14.18;73.09;101606.72;6005737;28;20043;-66
2022/07/06 03:16:37;;;;;;;4.57;1.10;;;;;;;14.06;72.49;101601.72;6005694;28;20066;-64
2022/07/06 03:19:33;;;;;;;4.57;1.20;;;;;;;14.01;73.37;101599.50;6004393;28;20594;-65
2022/07/06 03:22:29;;;;;;;6.18;1.00;;;;;;;13.88;73.76;101593.66;6005058;28;20050;-66
2022/07/06 03:25:24;;;;;;;4.10;1.10;;;;;;;13.80;73.94;101590.88;6005838;28;20022;-63
2022/07/06 03:28:19;;;;;;;7.70;1.40;;;;;;;13.76;74.52;101602.78;6004892;28;20049;-66
2022/07/06 03:31:14;;;;;;;4.87;1.30;;;;;;;13.77;74.58;101596.50;6004856;28;20027;-64
2022/07/06 03:34:10;;;;;;;3.77;1.07;;;;;;;13.64;74.83;101587.97;6005976;28;20296;-64
2022/07/06 03:37:06;;;;;;;2.90;1.00;;;;;;;13.64;75.76;101601.31;6005316;28;20059;-67
2022/07/06 03:40:01;;;;;;;2.60;1.10;;;;;;;13.58;75.74;101599.19;6005162;28;20039;-65
2022/07/06 03:42:56;;;;;;;4.33;1.10;;;;;;;13.52;75.74;101589.09;6004204;28;20046;-64
2022/07/06 03:45:52;;;;;;;2.73;1.10;;;;;;;13.64;76.76;101595.97;6005393;28;20023;-67
2022/07/06 03:48:47;;;;;;;2.60;1.40;;;;;;;13.76;76.28;101594.78;6005410;28;20117;-66
2022/07/06 03:51:42;;;;;;;4.53;1.07;;;;;;;13.88;75.72;101598.97;6004618;28;20034;-65
2022/07/06 03:54:38;;;;;;;2.10;1.10;;;;;;;13.85;75.36;101609.94;6005428;28;20042;-65
2022/07/06 03:57:33;;;;;;;3.80;1.20;;;;;;;14.12;74.73;101601.13;6005033;28;20035;-65
2022/07/06 04:00:28;;;;;;;4.97;1.47;;;;;;;13.96;75.35;101601.75;5991841;28;20116;-64
2022/07/06 04:03:24;;;;;;;3.43;1.20;;;;;;;13.83;75.40;101608.41;6004926;28;20369;-65
2022/07/06 04:06:19;;;;;;;4.10;1.43;;;;;;;13.83;75.79;101614.59;6004602;28;20298;-67
2022/07/06 04:09:15;;;;;;;5.07;1.52;;;;;;;13.79;76.74;101605.19;6005017;28;20026;-64
2022/07/06 04:12:10;;;;;;;4.23;1.10;;;;;;;13.73;76.24;101613.75;6000905;28;20035;-66
2022/07/06 04:15:06;;;;;;;3.92;1.10;;;;;;;13.99;76.32;101612.13;6004941;28;20780;-65
2022/07/06 04:18:01;;;;;;;5.90;1.00;;;;;;;14.02;75.42;101622.50;6003764;28;20042;-67
2022/07/06 04:20:57;;;;;;;4.53;0.93;;;;;;;14.06;75.67;101615.03;6003600;28;20038;-67
2022/07/06 04:23:52;;;;;;;5.70;1.20;;;;;;;14.14;75.18;101625.81;6004545;28;20387;-63
2022/07/06 04:26:47;;;;;;;4.78;1.40;;;;;;;14.32;74.81;101627.59;6004390;28;20027;-64
2022/07/06 04:29:43;;;;;;;2.07;1.10;;;;;;;14.46;73.72;101636.13;6004381;28;20209;-65
2022/07/06 04:32:38;;;;;;;8.73;1.20;;;;;;;14.43;73.79;101641.75;6003847;28;20122;-66
2022/07/06 04:35:33;;;;;;;3.53;1.10;;;;;;;14.73;73.72;101633.44;6004064;28;20081;-67
2022/07/06 04:38:29;;;;;;;3.20;0.93;;;;;;;14.80;72.81;101621.16;6004418;28;20078;-63
2022/07/06 04:41:24;;;;;;;4.17;1.20;;;;;;;14.98;72.71;101619.31;6003459;28;20046;-64
2022/07/06 04:44:20;;;;;;;2.33;1.00;;;;;;;14.86;72.25;101628.56;6004218;28;20033;-65
2022/07/06 04:47:15;;;;;;;3.17;2.17;;;;;;;14.76;72.67;101622.41;6004173;28;20082;-64
2022/07/06 04:50:11;;;;;;;4.53;1.10;;;;;;;14.74;73.08;101635.09;6002768;28;20031;-66
2022/07/06 04:53:07;;;;;;;6.07;1.25;;;;;;;14.75;72.65;101623.44;6004016;28;20033;-64
2022/07/06 04:56:02;;;;;;;1.27;1.07;;;;;;;15.29;71.47;101625.13;6003584;28;20038;-65
2022/07/06 04:58:57;;;;;;;3.60;1.10;;;;;;;15.66;69.80;101632.94;6003725;28;20027;-64
2022/07/06 05:01:53;;;;;;;3.57;1.20;;;;;;;15.73;68.77;101628.66;6002937;28;20142;-65
2022/07/06 05:04:48;;;;;;;8.30;1.45;;;;;;;15.40;71.05;101636.41;6003263;28;20387;-67
2022/07/06 05:07:43;;;;;;;5.60;1.20;;;;;;;15.59;70.17;101623.88;6003314;28;20047;-64
2022/07/06 05:10:39;;;;;;;8.10;1.20;;;;;;;16.36;67.95;101632.69;6002389;28;20286;-66
2022/07/06 05:13:34;;;;;;;3.77;1.10;;;;;;;16.95;65.51;101622.88;5999328;28;20038;-64
2022/07/06 05:16:29;;;;;;;3.73;1.13;;;;;;;16.39;65.75;101610.94;5997883;28;20045;-63
2022/07/06 05:19:24;;;;;;;5.20;1.00;;;;;;;16.25;66.48;101626.81;6003418;28;20030;-67
2022/07/06 05:22:20;;;;;;;7.60;1.10;;;;;;;15.76;68.14;101621.16;6002160;28;20169;-65
2022/07/06 05:25:15;;;;;;;4.47;1.10;;;;;;;15.35;69.50;101630.69;6002122;28;20382;-66
2022/07/06 05:28:10;;;;;;;6.20;1.10;;;;;;;15.33;70.49;101629.16;6002719;28;20039;-64
2022/07/06 05:31:06;;;;;;;1.90;1.00;;;;;;;15.63;69.73;101627.91;6001592;28;20042;-64
2022/07/06 05:34:01;;;;;;;4.37;1.43;;;;;;;16.35;66.98;101623.00;6003279;28;20109;-65
2022/07/06 05:36:56;;;;;;;4.67;1.20;;;;;;;17.18;64.38;101614.00;5998505;28;20317;-66
2022/07/06 05:39:52;;;;;;;6.27;1.47;;;;;;;17.61;62.07;101625.44;6002727;28;20113;-64
2022/07/06 05:42:47;;;;;;;4.23;1.23;;;;;;;17.05;63.55;101618.19;6002394;28;20101;-66
2022/07/06 05:45:42;;;;;;;4.07;1.03;;;;;;;16.89;64.72;101634.22;6002782;28;20031;-66
2022/07/06 05:51:52;;;;;;;4.32;1.05;;;;;;;16.88;65.60;101633.38;6002155;28;20023;-63
2022/07/06 05:54:47;;;;;;;2.78;1.20;;;;;;;16.90;65.67;101635.94;6002521;28;20035;-65
2022/07/06 05:57:42;;;;;;;4.07;0.97;;;;;;;16.88;65.36;101635.22;6002286;28;20045;-65
2022/07/06 06:00:38;;;;;;;5.60;1.07;;;;;;;16.74;66.22;101625.16;6001718;28;20031;-66
2022/07/06 06:03:33;;;;;;;6.03;1.00;;;;;;;16.82;65.33;101627.88;6002664;28;20035;-65
2022/07/06 06:06:31;;;;;;;2.30;0.88;;;;;;;17.04;64.58;101632.59;6002443;28;20038;-63
2022/07/06 06:09:26;;;;;;;7.28;1.10;;;;;;;17.05;63.89;101628.91;6002388;28;20478;-66
2022/07/06 06:12:21;;;;;;;3.10;0.90;;;;;;;16.79;65.20;101641.59;6002324;28;20026;-64
2022/07/06 06:15:17;;;;;;;6.10;1.10;;;;;;;16.86;64.77;101645.28;6002071;28;20045;-64
2022/07/06 06:18:13;;;;;;;3.92;1.00;;;;;;;16.59;65.43;101649.06;6001558;28;20038;-65
2022/07/06 06:21:09;;;;;;;6.80;1.50;;;;;;;16.67;65.19;101649.94;6001673;28;20047;-65
2022/07/06 06:24:04;;;;;;;3.60;1.10;;;;;;;16.81;64.70;101631.53;6002392;28;20365;-67
2022/07/06 06:26:59;;;;;;;3.50;1.17;;;;;;;16.90;64.77;101625.19;6002305;28;20033;-65
2022/07/06 06:29:55;;;;;;;8.97;1.30;;;;;;;16.65;64.13;101637.69;6002144;28;20058;-66
2022/07/06 06:32:50;;;;;;;6.93;1.57;;;;;;;16.94;63.49;101631.91;6000718;28;20038;-63
2022/07/06 06:35:47;;;;;;;3.38;1.00;;;;;;;17.01;62.09;101646.34;6002185;28;20054;-65
2022/07/06 06:38:43;;;;;;;4.97;1.00;;;;;;;16.61;63.56;101639.84;6002316;28;20058;-66
2022/07/06 06:41:38;;;;;;;3.80;1.07;;;;;;;16.61;63.25;101639.84;6003742;28;20037;-65
2022/07/06 06:44:33;;;;;;;4.00;0.93;;;;;;;16.60;63.42;101640.84;6006480;28;20031;-62
2022/07/06 06:47:29;;;;;;;2.77;1.00;;;;;;;16.49;63.90;101642.97;6005981;28;20079;-64
2022/07/06 06:50:24;;;;;;;5.07;1.30;;;;;;;16.65;63.44;101638.53;6005716;28;20086;-64
2022/07/06 06:53:19;;;;;;;5.15;1.15;;;;;;;16.68;63.92;101648.09;6006525;28;20637;-65
2022/07/06 06:56:15;;;;;;;4.35;1.50;;;;;;;16.52;64.86;101643.47;6006478;28;20494;-65
2022/07/06 06:59:10;;;;;;;4.10;1.00;;;;;;;16.47;65.81;101656.50;6006007;28;20027;-63
2022/07/06 07:02:06;;;;;;;3.73;1.00;;;;;;;16.36;64.43;101662.13;6001906;28;20035;-64
2022/07/06 07:05:02;;;;;;;2.40;0.90;;;;;;;16.54;64.24;101673.66;6005604;28;20069;-64
2022/07/06 07:07:58;;;;;;;2.13;0.93;;;;;;;16.40;63.51;101671.53;6005898;28;20059;-66
2022/07/06 07:10:54;;;;;;;3.08;0.90;;;;;;;16.39;64.66;101664.50;6005427;28;20602;-63
2022/07/06 07:13:49;;;;;;;4.63;1.13;;;;;;;16.34;64.33;101671.31;6004564;28;20043;-64
2022/07/06 07:16:44;;;;;;;5.80;0.90;;;;;;;16.42;65.07;101668.69;6005851;28;20073;-66
2022/07/06 07:19:40;;;;;;;3.37;1.03;;;;;;;16.96;63.12;101672.78;6005955;28;20233;-65
2022/07/06 07:22:35;;;;;;;4.18;0.90;;;;;;;17.03;61.82;101663.06;6005331;28;20288;-64
2022/07/06 07:25:30;;;;;;;4.60;0.90;;;;;;;17.39;60.01;101672.53;6005968;28;20038;-64
2022/07/06 07:28:26;;;;;;;4.57;0.90;;;;;;;17.40;57.43;101671.50;6005412;28;20365;-66
2022/07/06 07:31:21;;;;;;;2.57;0.73;;;;;;;17.54;57.99;101673.56;6005363;28;20049;-64
2022/07/06 07:34:17;;;;;;;4.25;1.00;;;;;;;17.84;57.31;101680.06;6005592;28;20027;-64
2022/07/06 07:37:12;;;;;;;6.68;1.10;;;;;;;17.39;56.86;101691.28;6005816;28;20035;-64
2022/07/06 07:40:08;;;;;;;2.50;1.25;;;;;;;17.35;58.23;101689.94;6005201;28;20034;-66
2022/07/06 07:43:03;;;;;;;4.43;0.90;;;;;;;17.09;57.83;101691.91;5993098;28;20038;-63
2022/07/06 07:45:58;;;;;;;3.23;0.90;;;;;;;17.33;58.12;101680.38;6005504;28;20219;-66
2022/07/06 07:48:54;;;;;;;5.30;1.33;;;;;;;17.45;57.59;101692.47;6005236;28;20038;-64
2022/07/06 07:51:49;;;;;;;2.67;0.82;;;;;;;17.68;57.58;101686.28;6004194;28;20041;-63
2022/07/06 07:54:44;;;;;;;2.70;0.80;;;;;;;17.50;57.06;101690.94;6003678;28;20113;-64
2022/07/06 07:57:40;;;;;;;8.43;1.30;;;;;;;17.30;56.28;101684.22;6003556;28;20037;-66
2022/07/06 08:00:35;;;;;;;3.10;0.93;;;;;;;17.39;55.92;101693.97;6004306;28;20047;-66
2022/07/06 08:03:31;;;;;;;2.83;0.80;;;;;;;17.32;56.57;101684.91;6004664;28;20031;-65
2022/07/06 08:06:26;;;;;;;3.67;0.70;;;;;;;17.25;56.49;101682.06;6004545;28;20500;-64
2022/07/06 08:09:22;;;;;;;4.00;0.80;;;;;;;17.25;57.61;101681.22;5992813;28;20089;-65
2022/07/06 08:12:17;;;;;;;2.43;0.80;;;;;;;17.40;56.81;101695.63;6002858;28;20030;-63
2022/07/06 08:15:12;;;;;;;3.90;0.77;;;;;;;17.54;56.88;101678.91;6004641;28;20032;-65
2022/07/06 08:18:09;;;;;;;2.87;0.90;;;;;;;17.71;57.02;101685.97;6004379;28;20029;-65
2022/07/06 08:21:05;;;;;;;3.42;0.88;;;;;;;17.92;56.10;101687.28;6003847;28;20026;-66
2022/07/06 08:24:01;;;;;;;2.92;0.70;;;;;;;18.25;54.92;101689.72;6003830;28;20059;-65
2022/07/06 08:26:58;;;;;;;3.28;0.90;;;;;;;18.33;55.32;101684.34;6004623;28;20039;-63
2022/07/06 08:29:53;;;;;;;1.60;0.68;;;;;;;18.72;53.38;101686.25;6004495;28;20046;-64
2022/07/06 08:32:48;;;;;;;2.87;0.90;;;;;;;18.55;54.25;101684.63;6003431;28;20043;-64
2022/07/06 08:35:44;;;;;;;1.35;0.50;;;;;;;18.56;53.27;101676.41;6001194;28;20471;-65
2022/07/06 08:38:40;;;;;;;3.03;0.80;;;;;;;18.83;53.14;101658.97;5993759;28;20046;-65
2022/07/06 08:41:36;;;;;;;4.87;0.80;;;;;;;19.29;50.42;101668.75;6003638;28;20395;-65
2022/07/06 08:44:32;;;;;;;3.78;1.17;;;;;;;19.47;51.00;101681.94;5996414;28;20298;-65
2022/07/06 08:47:28;;;;;;;3.30;1.17;;;;;;;19.36;51.79;101676.94;5996160;28;20037;-64
2022/07/06 08:50:25;;;;;;;5.50;1.23;;;;;;;19.47;50.20;101684.63;6002392;28;20499;-65
2022/07/06 08:53:20;;;;;;;3.22;1.02;;;;;;;19.19;49.91;101672.66;6003417;28;20038;-65
2022/07/06 08:56:16;;;;;;;3.17;0.43;;;;;;;19.30;50.12;101678.47;6002655;28;20058;-63
2022/07/06 08:59:12;;;;;;;3.97;0.60;;;;;;;19.43;48.66;101680.63;6003558;28;20049;-65
2022/07/06 09:02:09;;;;;;;2.90;0.68;;;;;;;19.39;49.68;101690.06;6002931;28;20162;-65
2022/07/06 09:05:05;;;;;;;6.65;0.68;;;;;;;19.74;46.93;101692.13;6001944;28;20117;-66
2022/07/06 09:08:01;;;;;;;1.85;0.43;;;;;;;19.68;44.70;101684.78;6018489;28;20390;-65
2022/07/06 09:10:57;;;;;;;4.45;0.90;;;;;;;19.81;46.26;101687.69;6002918;28;20062;-64
2022/07/06 09:13:52;;;;;;;0.53;0.40;;;;;;;19.41;46.45;101688.03;6003460;28;20541;-67
2022/07/06 09:16:52;;;;;;;2.03;0.57;;;;;;;19.58;46.87;101690.41;6001836;28;20475;-64
2022/07/06 09:19:48;;;;;;;4.22;0.50;;;;;;;19.81;44.89;101684.97;5996530;28;20030;-66
2022/07/06 09:22:43;;;;;;;2.90;0.77;;;;;;;19.97;44.74;101679.47;6002492;28;20042;-65
2022/07/06 09:25:38;;;;;;;2.97;0.70;;;;;;;20.03;44.06;101689.47;6003412;28;20414;-66
2022/07/06 09:28:44;;;;;;;3.57;0.83;;;;;;;20.09;44.01;101694.16;6003203;28;20042;-64
2022/07/06 09:31:40;;;;;;;3.33;0.70;;;;;;;19.93;45.49;101682.69;6001867;28;20677;-67
2022/07/06 09:34:46;;;;;;;2.75;0.70;;;;;;;19.59;44.59;101680.50;6003169;28;20097;-64
2022/07/06 09:37:41;;;;;;;5.22;0.90;;;;;;;19.64;45.53;101680.78;6002924;28;20054;-66
2022/07/06 09:40:44;;;;;;;2.83;0.70;;;;;;;19.88;45.26;101685.94;6002337;28;20053;-64
2022/07/06 09:43:40;;;;;;;4.25;0.70;;;;;;;19.29;46.72;101694.81;6002820;28;20027;-64
2022/07/06 09:46:41;;;;;;;2.83;0.77;;;;;;;19.19;46.92;101678.91;6002475;28;20046;-65
2022/07/06 09:49:38;;;;;;;1.88;0.80;;;;;;;19.09;46.71;101691.75;6002600;28;20050;-67
2022/07/06 09:52:34;;;;;;;2.35;0.63;;;;;;;19.11;47.63;101681.63;6001927;28;20062;-65
2022/07/06 09:55:30;;;;;;;4.00;0.60;;;;;;;19.21;47.28;101681.44;6002174;28;20045;-64
2022/07/06 09:58:25;;;;;;;5.43;0.80;;;;;;;19.28;47.81;101677.00;5999509;28;20416;-66
2022/07/06 10:01:26;;;;;;;0.68;0.60;;;;;;;19.25;47.44;101677.34;6001815;28;20041;-67
2022/07/06 10:04:22;;;;;;;3.53;0.80;;;;;;;19.17;47.64;101680.09;6002290;28;20034;-67
2022/07/06 10:07:18;;;;;;;5.57;0.90;;;;;;;19.20;47.74;101685.13;6002493;28;20034;-66
2022/07/06 10:10:14;;;;;;;3.45;0.75;;;;;;;19.23;47.36;101691.00;6001566;28;20065;-64
2022/07/06 10:13:10;;;;;;;3.80;0.75;;;;;;;19.31;46.39;101676.63;6000736;28;20039;-66
2022/07/06 10:16:07;;;;;;;2.95;0.60;;;;;;;19.25;46.26;101682.72;6003781;28;20042;-64
2022/07/06 10:19:07;;;;;;;3.38;0.80;;;;;;;19.63;45.59;101680.94;6005764;28;20050;-66
2022/07/06 10:22:03;;;;;;;2.40;0.80;;;;;;;20.24;43.91;101672.66;6006594;28;20035;-66
2022/07/06 10:24:59;;;;;;;3.25;0.75;;;;;;;21.00;43.32;101671.34;6006738;28;20034;-65
2022/07/06 10:27:55;;;;;;;1.88;0.75;;;;;;;21.40;40.57;101675.31;6005767;28;20067;-64
2022/07/06 10:30:50;;;;;;;2.72;0.80;;;;;;;21.04;40.68;101672.59;6006397;28;20066;-64
2022/07/06 10:33:46;;;;;;;1.52;0.50;;;;;;;20.67;42.43;101679.03;6006714;28;20045;-64
2022/07/06 10:36:43;;;;;;;2.65;0.70;;;;;;;20.35;42.69;101674.03;6005449;28;20039;-64
2022/07/06 10:43:00;;;;;;;2.05;0.70;;;;;;;19.33;44.67;101682.66;6005808;28;20478;-64
2022/07/06 10:45:56;;;;;;;3.67;0.75;;;;;;;18.89;46.05;101674.38;6006217;28;20034;-64
2022/07/06 10:48:51;;;;;;;1.25;0.60;;;;;;;18.69;47.14;101684.75;6006653;28;20041;-63
2022/07/06 10:51:47;;;;;;;2.63;0.60;;;;;;;18.37;47.65;101684.84;6005963;28;20034;-65
2022/07/06 10:54:43;;;;;;;2.05;0.50;;;;;;;18.04;49.11;101688.59;6006077;28;20049;-64
2022/07/06 10:57:51;;;;;;;3.00;0.73;;;;;;;17.91;50.17;101690.97;6006723;28;20039;-63
2022/07/06 11:00:56;;;;;;;3.22;0.70;;;;;;;17.71;50.04;101682.44;6005658;28;20041;-65
2022/07/06 11:03:57;;;;;;;4.10;0.57;;;;;;;17.66;49.42;101692.84;6006257;28;20039;-65
2022/07/06 11:06:52;;;;;;;2.75;0.60;;;;;;;17.67;49.47;101683.75;6006297;28;20031;-67
2022/07/06 11:09:55;;;;;;;1.90;0.70;;;;;;;17.60;49.46;101686.28;6001813;28;20510;-65
2022/07/06 11:12:58;;;;;;;3.25;0.65;;;;;;;17.60;49.85;101677.41;5999592;28;20042;-64
2022/07/06 11:16:01;;;;;;;6.13;2.60;;;;;;;17.85;50.79;101666.47;6006326;28;20070;-63
2022/07/06 11:19:03;;;;;;;2.63;0.68;;;;;;;17.91;48.76;101669.50;5993887;28;20105;-64
2022/07/06 11:22:06;;;;;;;1.30;0.63;;;;;;;18.24;49.21;101671.09;6005226;28;20030;-65
2022/07/06 11:25:02;;;;;;;3.72;0.65;;;;;;;18.39;47.85;101672.06;6006001;28;20053;-66
2022/07/06 11:27:57;;;;;;;2.08;0.40;;;;;;;18.98;47.32;101665.25;6001883;28;20477;-64
2022/07/06 11:30:54;;;;;;;1.53;0.60;;;;;;;19.30;45.42;101666.88;6005174;28;20035;-66
2022/07/06 11:33:49;;;;;;;3.13;0.88;;;;;;;19.79;45.30;101659.25;6004397;28;20042;-66
2022/07/06 11:36:44;;;;;;;2.63;0.97;;;;;;;19.80;44.18;101660.94;6005708;28;20483;-67
2022/07/06 11:39:42;;;;;;;2.33;0.70;;;;;;;19.40;44.96;101652.22;6005245;28;20057;-65
2022/07/06 11:42:37;;;;;;;3.33;0.60;;;;;;;18.88;46.06;101662.81;6002712;28;20035;-66
2022/07/06 11:45:33;;;;;;;2.83;1.23;;;;;;;18.31;46.94;101655.97;6005435;28;20026;-64
2022/07/06 11:48:28;;;;;;;3.10;0.70;;;;;;;18.08;47.61;101663.09;6005277;28;20129;-66
2022/07/06 11:51:25;;;;;;;2.60;0.50;;;;;;;17.84;47.20;101659.44;6004938;28;20038;-65
2022/07/06 11:54:21;;;;;;;3.10;0.55;;;;;;;17.80;46.77;101655.41;6005162;28;21016;-66
2022/07/06 11:57:17;;;;;;;2.22;0.35;;;;;;;18.10;47.04;101656.53;6004766;28;20442;-65
2022/07/06 12:00:12;;;;;;;1.95;0.50;;;;;;;18.36;46.75;101658.97;6000063;28;20038;-66
2022/07/06 12:03:08;;;;;;;1.23;0.45;;;;;;;18.85;45.40;101659.63;6004306;28;20379;-65
2022/07/06 12:06:09;;;;;;;3.40;0.60;;;;;;;19.55;44.10;101657.63;6004713;28;20042;-65
2022/07/06 12:09:06;;;;;;;2.60;0.40;;;;;;;19.79;43.59;101641.25;6003360;28;20066;-63
2022/07/06 12:12:02;;;;;;;3.35;0.70;;;;;;;20.25;42.82;101643.84;6004075;28;20027;-64
2022/07/06 12:14:58;;;;;;;2.60;0.73;;;;;;;20.48;41.80;101640.03;5998071;28;20039;-64
2022/07/06 12:17:53;;;;;;;1.67;0.80;;;;;;;20.18;40.37;101638.34;6003954;28;20054;-64
2022/07/06 12:20:48;;;;;;;1.23;0.50;;;;;;;19.82;41.91;101646.28;6003522;28;20262;-65
2022/07/06 12:23:51;;;;;;;1.55;0.50;;;;;;;19.58;42.55;101638.44;6004066;28;20496;-63
2022/07/06 12:26:47;;;;;;;3.40;0.80;;;;;;;19.49;43.15;101644.91;6004231;28;20038;-65
2022/07/06 12:29:42;;;;;;;1.55;0.65;;;;;;;19.25;45.13;101640.53;6003973;28;20722;-64
2022/07/06 12:32:37;;;;;;;1.08;0.60;;;;;;;19.17;45.58;101643.28;6000312;28;20038;-65
2022/07/06 12:35:33;;;;;;;1.80;0.60;;;;;;;18.88;46.09;101638.63;6003701;28;20598;-64
2022/07/06 12:38:30;;;;;;;1.30;0.68;;;;;;;18.71;46.20;101641.56;6003297;28;20062;-64
2022/07/06 12:41:31;;;;;;;4.38;0.70;;;;;;;18.80;46.85;101644.03;6003769;28;20467;-66
2022/07/06 12:44:27;;;;;;;1.08;0.60;;;;;;;18.97;45.93;101637.53;6004077;28;20133;-64
2022/07/06 12:47:24;;;;;;;2.15;0.63;;;;;;;19.22;45.89;101638.19;6003001;28;20027;-64
2022/07/06 12:50:19;;;;;;;1.08;0.50;;;;;;;19.58;45.26;101646.50;6003562;28;20109;-65
2022/07/06 12:53:26;;;;;;;3.00;0.60;;;;;;;19.53;45.00;101630.09;6003247;28;20035;-65
2022/07/06 12:56:21;;;;;;;3.83;0.85;;;;;;;19.65;45.41;101636.69;6003482;28;20041;-65
2022/07/06 12:59:22;;;;;;;2.73;0.57;;;;;;;19.89;43.68;101644.56;6003537;28;20402;-64
2022/07/06 13:02:29;;;;;;;2.00;0.60;;;;;;;20.27;43.92;101636.41;6003238;28;20509;-66
2022/07/06 13:05:28;;;;;;;2.45;0.60;;;;;;;20.17;43.78;101625.88;6000267;28;20035;-65
2022/07/06 13:08:24;;;;;;;1.77;0.65;;;;;;;20.10;44.08;101631.19;6003367;28;20566;-65
2022/07/06 13:11:19;;;;;;;2.53;0.70;;;;;;;20.69;42.81;101633.84;6002896;28;20042;-65
2022/07/06 13:14:16;;;;;;;1.40;0.60;;;;;;;20.72;41.78;101626.22;6003365;28;20034;-65
2022/07/06 13:17:12;;;;;;;2.90;0.80;;;;;;;21.07;40.85;101615.63;6003396;28;20047;-65
2022/07/06 13:20:08;;;;;;;2.70;0.60;;;;;;;21.01;41.46;101617.19;6001763;28;20052;-64
2022/07/06 13:23:04;;;;;;;5.57;0.65;;;;;;;21.28;40.66;101616.44;6002601;28;20042;-65
2022/07/06 13:25:59;;;;;;;1.60;0.60;;;;;;;21.28;40.79;101621.84;6003135;28;20368;-64
2022/07/06 13:28:55;;;;;;;1.80;0.47;;;;;;;21.65;40.29;101603.69;6002893;28;20027;-65
2022/07/06 13:31:50;;;;;;;2.72;0.70;;;;;;;21.53;40.24;101607.94;6002517;28;20034;-64
2022/07/06 13:34:45;;;;;;;2.43;0.67;;;;;;;21.52;39.92;101609.81;6002920;28;20034;-64
2022/07/06 13:37:41;;;;;;;1.17;0.50;;;;;;;21.18;39.47;101609.72;6002360;28;20357;-65
2022/07/06 13:40:37;;;;;;;0.88;0.55;;;;;;;20.88;40.92;101606.25;6002317;28;20059;-64
2022/07/06 13:43:35;;;;;;;2.03;0.53;;;;;;;21.00;41.36;101612.00;6002730;28;20049;-65